sensor_id;sensor_type;location;lat;lon;timestamp;pressure;altitude;pressure_sealevel;temperature;humidity
63556;BME280;49700;48.072;7.800;2023-04-24T00:00:17;98563.19;;;13.44;nan
63556;BME280;49700;48.072;7.800;2023-04-24T00:02:53;98558.19;;;13.41;nan
63556;BME280;49700;48.072;7.800;2023-04-24T00:05:24;98555.56;;;13.41;nan
63556;BME280;49700;48.072;7.800;2023-04-24T00:08:16;98561.53;;;13.43;nan
63556;BME280;49700;48.072;7.800;2023-04-24T00:11:08;98569.97;;;13.46;nan
63556;BME280;49700;48.072;7.800;2023-04-24T00:13:37;98567.34;;;13.46;nan
63556;BME280;49700;48.072;7.800;2023-04-24T00:16:24;98555.28;;;13.44;nan
63556;BME280;49700;48.072;7.800;2023-04-24T00:18:57;98557.09;;;13.43;nan
63556;BME280;49700;48.072;7.800;2023-04-24T00:21:33;98567.91;;;13.40;nan
63556;BME280;49700;48.072;7.800;2023-04-24T00:24:20;98557.22;;;13.42;nan
63556;BME280;49700;48.072;7.800;2023-04-24T00:26:50;98566.94;;;13.41;nan
63556;BME280;49700;48.072;7.800;2023-04-24T00:29:20;98567.91;;;13.40;nan
63556;BME280;49700;48.072;7.800;2023-04-24T00:31:59;98566.22;;;13.39;nan
63556;BME280;49700;48.072;7.800;2023-04-24T00:34:42;98567.09;;;13.40;nan
63556;BME280;49700;48.072;7.800;2023-04-24T00:37:14;98576.78;;;13.39;nan
63556;BME280;49700;48.072;7.800;2023-04-24T00:39:43;98569.56;;;13.41;nan
63556;BME280;49700;48.072;7.800;2023-04-24T00:42:19;98570.28;;;13.43;nan
63556;BME280;49700;48.072;7.800;2023-04-24T00:44:45;98564.00;;;13.44;nan
63556;BME280;49700;48.072;7.800;2023-04-24T00:47:12;98564.00;;;13.44;nan
63556;BME280;49700;48.072;7.800;2023-04-24T00:50:01;98565.69;;;13.45;nan
63556;BME280;49700;48.072;7.800;2023-04-24T00:52:47;98559.59;;;13.45;nan
63556;BME280;49700;48.072;7.800;2023-04-24T00:55:26;98565.69;;;13.45;nan
63556;BME280;49700;48.072;7.800;2023-04-24T00:58:04;98553.47;;;13.44;nan
63556;BME280;49700;48.072;7.800;2023-04-24T01:00:54;98556.78;;;13.46;nan
63556;BME280;49700;48.072;7.800;2023-04-24T01:03:30;98552.78;;;13.42;nan
63556;BME280;49700;48.072;7.800;2023-04-24T01:06:07;98556.38;;;13.41;nan
63556;BME280;49700;48.072;7.800;2023-04-24T01:09:07;98547.38;;;13.34;nan
63556;BME280;49700;48.072;7.800;2023-04-24T01:11:59;98564.03;;;13.35;nan
63556;BME280;49700;48.072;7.800;2023-04-24T01:14:47;98556.53;;;13.30;nan
63556;BME280;49700;48.072;7.800;2023-04-24T01:17:34;98563.91;;;13.26;nan
63556;BME280;49700;48.072;7.800;2023-04-24T01:20:07;98552.63;;;13.24;nan
63556;BME280;49700;48.072;7.800;2023-04-24T01:22:51;98555.69;;;13.20;nan
63556;BME280;49700;48.072;7.800;2023-04-24T01:25:37;98550.41;;;13.20;nan
63556;BME280;49700;48.072;7.800;2023-04-24T01:28:25;98551.09;;;13.22;nan
63556;BME280;49700;48.072;7.800;2023-04-24T01:31:04;98548.47;;;13.22;nan
63556;BME280;49700;48.072;7.800;2023-04-24T01:33:51;98549.28;;;13.22;nan
63556;BME280;49700;48.072;7.800;2023-04-24T01:36:37;98541.53;;;13.21;nan
63556;BME280;49700;48.072;7.800;2023-04-24T01:39:23;98545.13;;;13.20;nan
63556;BME280;49700;48.072;7.800;2023-04-24T01:42:09;98537.38;;;13.18;nan
63556;BME280;49700;48.072;7.800;2023-04-24T01:44:35;98541.13;;;13.16;nan
63556;BME280;49700;48.072;7.800;2023-04-24T01:47:14;98535.16;;;13.14;nan
63556;BME280;49700;48.072;7.800;2023-04-24T01:49:41;98549.72;;;13.08;nan
63556;BME280;49700;48.072;7.800;2023-04-24T01:52:11;98546.28;;;13.07;nan
63556;BME280;49700;48.072;7.800;2023-04-24T01:54:54;98552.66;;;13.05;nan
63556;BME280;49700;48.072;7.800;2023-04-24T01:57:52;98556.13;;;13.05;nan
63556;BME280;49700;48.072;7.800;2023-04-24T02:00:23;98554.59;;;13.03;nan
63556;BME280;49700;48.072;7.800;2023-04-24T02:02:51;98558.22;;;13.02;nan
63556;BME280;49700;48.072;7.800;2023-04-24T02:05:20;98530.31;;;12.99;nan
63556;BME280;49700;48.072;7.800;2023-04-24T02:07:45;98541.53;;;13.01;nan
63556;BME280;49700;48.072;7.800;2023-04-24T02:10:11;98543.22;;;13.02;nan
63556;BME280;49700;48.072;7.800;2023-04-24T02:12:51;98547.38;;;13.05;nan
63556;BME280;49700;48.072;7.800;2023-04-24T02:15:30;98549.84;;;13.06;nan
63556;BME280;49700;48.072;7.800;2023-04-24T02:18:09;98554.31;;;13.06;nan
63556;BME280;49700;48.072;7.800;2023-04-24T02:20:59;98559.03;;;13.02;nan
63556;BME280;49700;48.072;7.800;2023-04-24T02:23:37;98552.22;;;13.00;nan
63556;BME280;49700;48.072;7.800;2023-04-24T02:26:23;98548.91;;;12.98;nan
63556;BME280;49700;48.072;7.800;2023-04-24T02:29:09;98554.44;;;12.95;nan
63556;BME280;49700;48.072;7.800;2023-04-24T02:32:06;98555.44;;;12.94;nan
63556;BME280;49700;48.072;7.800;2023-04-24T02:34:52;98553.91;;;12.91;nan
63556;BME280;49700;48.072;7.800;2023-04-24T02:37:20;98555.97;;;12.88;nan
63556;BME280;49700;48.072;7.800;2023-04-24T02:40:07;98574.41;;;12.88;nan
63556;BME280;49700;48.072;7.800;2023-04-24T02:42:33;98569.28;;;12.86;nan
63556;BME280;49700;48.072;7.800;2023-04-24T02:45:16;98556.25;;;12.84;nan
63556;BME280;49700;48.072;7.800;2023-04-24T02:47:59;98564.97;;;12.85;nan
63556;BME280;49700;48.072;7.800;2023-04-24T02:50:35;98567.59;;;12.85;nan
63556;BME280;49700;48.072;7.800;2023-04-24T02:53:04;98567.59;;;12.85;nan
63556;BME280;49700;48.072;7.800;2023-04-24T02:55:40;98570.94;;;12.87;nan
63556;BME280;49700;48.072;7.800;2023-04-24T02:58:26;98565.66;;;12.87;nan
63556;BME280;49700;48.072;7.800;2023-04-24T03:01:12;98563.88;;;12.88;nan
63556;BME280;49700;48.072;7.800;2023-04-24T03:03:48;98572.63;;;12.88;nan
63556;BME280;49700;48.072;7.800;2023-04-24T03:06:24;98563.75;;;12.89;nan
63556;BME280;49700;48.072;7.800;2023-04-24T03:09:12;98568.72;;;12.92;nan
63556;BME280;49700;48.072;7.800;2023-04-24T03:11:47;98555.56;;;12.92;nan
63556;BME280;49700;48.072;7.800;2023-04-24T03:14:27;98557.91;;;12.95;nan
63556;BME280;49700;48.072;7.800;2023-04-24T03:17:03;98558.72;;;12.96;nan
63556;BME280;49700;48.072;7.800;2023-04-24T03:20:21;98551.69;;;12.96;nan
63556;BME280;49700;48.072;7.800;2023-04-24T03:23:07;98556.09;;;12.96;nan
63556;BME280;49700;48.072;7.800;2023-04-24T03:25:45;98556.09;;;12.96;nan
63556;BME280;49700;48.072;7.800;2023-04-24T03:28:31;98558.19;;;12.92;nan
63556;BME280;49700;48.072;7.800;2023-04-24T03:31:12;98570.53;;;12.92;nan
63556;BME280;49700;48.072;7.800;2023-04-24T03:33:58;98570.13;;;12.87;nan
63556;BME280;49700;48.072;7.800;2023-04-24T03:36:37;98582.31;;;12.88;nan
63556;BME280;49700;48.072;7.800;2023-04-24T03:39:23;98593.13;;;12.84;nan
63556;BME280;49700;48.072;7.800;2023-04-24T03:42:06;98590.66;;;12.83;nan
63556;BME280;49700;48.072;7.800;2023-04-24T03:44:54;98595.94;;;12.83;nan
63556;BME280;49700;48.072;7.800;2023-04-24T03:47:32;98604.78;;;12.82;nan
63556;BME280;49700;48.072;7.800;2023-04-24T03:50:02;98609.38;;;12.80;nan
63556;BME280;49700;48.072;7.800;2023-04-24T03:52:40;98617.97;;;12.72;nan
63556;BME280;49700;48.072;7.800;2023-04-24T03:55:34;98622.53;;;12.70;nan
63556;BME280;49700;48.072;7.800;2023-04-24T03:58:03;98605.44;;;12.65;nan
63556;BME280;49700;48.072;7.800;2023-04-24T04:00:39;98607.53;;;12.61;nan
63556;BME280;49700;48.072;7.800;2023-04-24T04:03:36;98617.75;;;12.54;nan
63556;BME280;49700;48.072;7.800;2023-04-24T04:06:12;98619.13;;;12.49;nan
63556;BME280;49700;48.072;7.800;2023-04-24T04:08:38;98627.31;;;12.46;nan
63556;BME280;49700;48.072;7.800;2023-04-24T04:11:04;98637.00;;;12.45;nan
63556;BME280;49700;48.072;7.800;2023-04-24T04:13:39;98639.88;;;12.42;nan
63556;BME280;49700;48.072;7.800;2023-04-24T04:16:08;98653.22;;;12.40;nan
63556;BME280;49700;48.072;7.800;2023-04-24T04:18:36;98658.59;;;12.39;nan
63556;BME280;49700;48.072;7.800;2023-04-24T04:21:14;98660.97;;;12.42;nan
63556;BME280;49700;48.072;7.800;2023-04-24T04:24:04;98660.97;;;12.42;nan
63556;BME280;49700;48.072;7.800;2023-04-24T04:26:36;98670.66;;;12.42;nan
63556;BME280;49700;48.072;7.800;2023-04-24T04:29:09;98681.34;;;12.40;nan
63556;BME280;49700;48.072;7.800;2023-04-24T04:31:45;98680.63;;;12.38;nan
63556;BME280;49700;48.072;7.800;2023-04-24T04:34:21;98680.63;;;12.38;nan
63556;BME280;49700;48.072;7.800;2023-04-24T04:36:50;98680.63;;;12.38;nan
63556;BME280;49700;48.072;7.800;2023-04-24T04:39:41;98685.91;;;12.38;nan
63556;BME280;49700;48.072;7.800;2023-04-24T04:42:26;98687.72;;;12.37;nan
63556;BME280;49700;48.072;7.800;2023-04-24T04:45:04;98695.63;;;12.37;nan
63556;BME280;49700;48.072;7.800;2023-04-24T04:48:10;98698.38;;;12.36;nan
63556;BME280;49700;48.072;7.800;2023-04-24T04:51:06;98703.50;;;12.37;nan
63556;BME280;49700;48.072;7.800;2023-04-24T04:53:52;98702.53;;;12.38;nan
63556;BME280;49700;48.072;7.800;2023-04-24T04:56:36;98701.44;;;12.41;nan
63556;BME280;49700;48.072;7.800;2023-04-24T04:59:27;98708.38;;;12.42;nan
63556;BME280;49700;48.072;7.800;2023-04-24T05:02:07;98711.00;;;12.42;nan
63556;BME280;49700;48.072;7.800;2023-04-24T05:04:54;98718.91;;;12.42;nan
63556;BME280;49700;48.072;7.800;2023-04-24T05:07:50;98721.53;;;12.42;nan
63556;BME280;49700;48.072;7.800;2023-04-24T05:10:46;98730.28;;;12.43;nan
63556;BME280;49700;48.072;7.800;2023-04-24T05:13:39;98734.69;;;12.42;nan
63556;BME280;49700;48.072;7.800;2023-04-24T05:16:35;98738.31;;;12.41;nan
63556;BME280;49700;48.072;7.800;2023-04-24T05:19:34;98745.50;;;12.39;nan
63556;BME280;49700;48.072;7.800;2023-04-24T05:22:30;98749.38;;;12.35;nan
63556;BME280;49700;48.072;7.800;2023-04-24T05:25:29;98735.38;;;12.34;nan
63556;BME280;49700;48.072;7.800;2023-04-24T05:28:24;98729.50;;;12.31;nan
63556;BME280;49700;48.072;7.800;2023-04-24T05:31:23;98736.03;;;12.27;nan
63556;BME280;49700;48.072;7.800;2023-04-24T05:34:08;98741.56;;;12.24;nan
63556;BME280;49700;48.072;7.800;2023-04-24T05:37:09;98747.91;;;12.21;nan
63556;BME280;49700;48.072;7.800;2023-04-24T05:39:58;98760.25;;;12.21;nan
63556;BME280;49700;48.072;7.800;2023-04-24T05:42:54;98760.34;;;12.19;nan
63556;BME280;49700;48.072;7.800;2023-04-24T05:45:48;98761.19;;;12.20;nan
63556;BME280;49700;48.072;7.800;2023-04-24T05:48:37;98768.16;;;12.21;nan
63556;BME280;49700;48.072;7.800;2023-04-24T05:51:17;98782.13;;;12.21;nan
63556;BME280;49700;48.072;7.800;2023-04-24T05:54:20;98780.34;;;12.22;nan
63556;BME280;49700;48.072;7.800;2023-04-24T05:57:08;98783.78;;;12.22;nan
63556;BME280;49700;48.072;7.800;2023-04-24T06:00:26;98783.78;;;12.22;nan
63556;BME280;49700;48.072;7.800;2023-04-24T06:09:32;98797.94;;;12.21;nan
63556;BME280;49700;48.072;7.800;2023-04-24T06:12:32;98790.59;;;12.25;nan
63556;BME280;49700;48.072;7.800;2023-04-24T06:15:31;98801.78;;;12.38;nan
63556;BME280;49700;48.072;7.800;2023-04-24T06:18:27;98804.72;;;12.66;nan
63556;BME280;49700;48.072;7.800;2023-04-24T06:20:53;98815.19;;;13.07;nan
63556;BME280;49700;48.072;7.800;2023-04-24T06:23:39;98815.50;;;13.64;nan
63556;BME280;49700;48.072;7.800;2023-04-24T06:26:22;98806.91;;;13.91;nan
63556;BME280;49700;48.072;7.800;2023-04-24T06:29:18;98815.69;;;14.02;nan
63556;BME280;49700;48.072;7.800;2023-04-24T06:31:59;98820.09;;;14.01;nan
63556;BME280;49700;48.072;7.800;2023-04-24T06:34:24;98828.03;;;13.91;nan
63556;BME280;49700;48.072;7.800;2023-04-24T06:37:27;98826.50;;;13.79;nan
63556;BME280;49700;48.072;7.800;2023-04-24T06:40:14;98836.19;;;13.69;nan
63556;BME280;49700;48.072;7.800;2023-04-24T06:43:04;98843.41;;;13.57;nan
63556;BME280;49700;48.072;7.800;2023-04-24T06:45:38;98842.69;;;13.45;nan
63556;BME280;49700;48.072;7.800;2023-04-24T06:48:43;98837.75;;;13.31;nan
63556;BME280;49700;48.072;7.800;2023-04-24T06:52:02;98844.63;;;13.13;nan
63556;BME280;49700;48.072;7.800;2023-04-24T06:55:11;98849.41;;;12.98;nan
63556;BME280;49700;48.072;7.800;2023-04-24T07:01:17;98859.47;;;12.83;nan
63556;BME280;49700;48.072;7.800;2023-04-24T07:04:21;98850.84;;;12.81;nan
63556;BME280;49700;48.072;7.800;2023-04-24T07:07:11;98857.66;;;12.83;nan
63556;BME280;49700;48.072;7.800;2023-04-24T07:09:54;98862.09;;;12.83;nan
63556;BME280;49700;48.072;7.800;2023-04-24T07:12:35;98868.59;;;12.79;nan
63556;BME280;49700;48.072;7.800;2023-04-24T07:18:34;98871.13;;;14.02;nan
63556;BME280;49700;48.072;7.800;2023-04-24T07:21:13;98874.22;;;15.12;nan
63556;BME280;49700;48.072;7.800;2023-04-24T07:23:57;98868.34;;;16.19;nan
63556;BME280;49700;48.072;7.800;2023-04-24T07:26:46;98854.84;;;16.92;nan
63556;BME280;49700;48.072;7.800;2023-04-24T07:29:50;98871.09;;;17.58;nan
63556;BME280;49700;48.072;7.800;2023-04-24T07:35:52;98867.63;;;18.65;nan
63556;BME280;49700;48.072;7.800;2023-04-24T07:38:20;98867.59;;;19.06;nan
63556;BME280;49700;48.072;7.800;2023-04-24T07:41:39;98874.56;;;19.71;nan
63556;BME280;49700;48.072;7.800;2023-04-24T07:44:28;98873.84;;;19.38;nan
63556;BME280;49700;48.072;7.800;2023-04-24T07:54:18;98898.78;;;16.51;nan
63556;BME280;49700;48.072;7.800;2023-04-24T07:57:14;98902.91;;;15.82;nan
63556;BME280;49700;48.072;7.800;2023-04-24T08:00:32;98902.56;;;15.30;nan
63556;BME280;49700;48.072;7.800;2023-04-24T08:03:37;98907.09;;;15.00;nan
63556;BME280;49700;48.072;7.800;2023-04-24T08:06:41;98911.63;;;14.80;nan
63556;BME280;49700;48.072;7.800;2023-04-24T08:09:30;98921.66;;;14.67;nan
63556;BME280;49700;48.072;7.800;2023-04-24T08:12:32;98930.69;;;14.54;nan
63556;BME280;49700;48.072;7.800;2023-04-24T08:15:44;98937.19;;;14.50;nan
63556;BME280;49700;48.072;7.800;2023-04-24T08:18:39;98940.94;;;14.48;nan
63556;BME280;49700;48.072;7.800;2023-04-24T08:21:31;98945.53;;;14.46;nan
63556;BME280;49700;48.072;7.800;2023-04-24T08:24:17;98948.03;;;14.47;nan
63556;BME280;49700;48.072;7.800;2023-04-24T08:27:00;98957.75;;;14.47;nan
63556;BME280;49700;48.072;7.800;2023-04-24T08:29:56;98962.91;;;14.38;nan
63556;BME280;49700;48.072;7.800;2023-04-24T08:36:29;98962.47;;;14.24;nan
63556;BME280;49700;48.072;7.800;2023-04-24T08:39:25;98971.50;;;14.21;nan
63556;BME280;49700;48.072;7.800;2023-04-24T08:41:56;98980.00;;;14.25;nan
63556;BME280;49700;48.072;7.800;2023-04-24T08:44:52;98981.84;;;14.34;nan
63556;BME280;49700;48.072;7.800;2023-04-24T08:47:51;98977.81;;;14.39;nan
63556;BME280;49700;48.072;7.800;2023-04-24T08:50:37;98978.06;;;14.46;nan
63556;BME280;49700;48.072;7.800;2023-04-24T08:53:14;98968.66;;;14.53;nan
63556;BME280;49700;48.072;7.800;2023-04-24T08:55:45;98986.06;;;14.56;nan
63556;BME280;49700;48.072;7.800;2023-04-24T08:58:12;98986.88;;;14.56;nan
63556;BME280;49700;48.072;7.800;2023-04-24T09:01:08;98989.38;;;14.58;nan
63556;BME280;49700;48.072;7.800;2023-04-24T09:03:56;98992.88;;;14.58;nan
63556;BME280;49700;48.072;7.800;2023-04-24T09:06:23;98987.72;;;14.57;nan
63556;BME280;49700;48.072;7.800;2023-04-24T09:08:50;98992.44;;;14.53;nan
63556;BME280;49700;48.072;7.800;2023-04-24T09:11:21;98996.97;;;14.42;nan
63556;BME280;49700;48.072;7.800;2023-04-24T09:13:49;98996.81;;;14.33;nan
63556;BME280;49700;48.072;7.800;2023-04-24T09:16:15;99007.38;;;14.33;nan
63556;BME280;49700;48.072;7.800;2023-04-24T09:18:41;99009.19;;;14.33;nan
63556;BME280;49700;48.072;7.800;2023-04-24T09:21:08;99007.53;;;14.32;nan
63556;BME280;49700;48.072;7.800;2023-04-24T09:23:41;99003.09;;;14.32;nan
63556;BME280;49700;48.072;7.800;2023-04-24T09:26:09;99015.03;;;14.36;nan
63556;BME280;49700;48.072;7.800;2023-04-24T09:28:42;99005.47;;;14.45;nan
63556;BME280;49700;48.072;7.800;2023-04-24T09:31:31;99009.44;;;14.80;nan
63556;BME280;49700;48.072;7.800;2023-04-24T09:34:24;98986.28;;;15.11;nan
63556;BME280;49700;48.072;7.800;2023-04-24T09:36:53;99007.59;;;15.19;nan
63556;BME280;49700;48.072;7.800;2023-04-24T09:39:19;99011.50;;;15.15;nan
63556;BME280;49700;48.072;7.800;2023-04-24T09:42:00;99017.78;;;15.04;nan
63556;BME280;49700;48.072;7.800;2023-04-24T09:44:27;99019.44;;;15.05;nan
63556;BME280;49700;48.072;7.800;2023-04-24T09:46:59;99025.25;;;15.09;nan
63556;BME280;49700;48.072;7.800;2023-04-24T09:49:31;99028.91;;;15.08;nan
63556;BME280;49700;48.072;7.800;2023-04-24T09:52:05;99027.09;;;15.09;nan
63556;BME280;49700;48.072;7.800;2023-04-24T09:54:31;99025.00;;;15.02;nan
63556;BME280;49700;48.072;7.800;2023-04-24T09:56:57;99031.00;;;14.95;nan
63556;BME280;49700;48.072;7.800;2023-04-24T09:59:22;99029.19;;;14.86;nan
63556;BME280;49700;48.072;7.800;2023-04-24T10:01:53;99035.28;;;14.76;nan
63556;BME280;49700;48.072;7.800;2023-04-24T10:04:36;99023.47;;;14.80;nan
63556;BME280;49700;48.072;7.800;2023-04-24T10:14:10;99042.91;;;15.47;nan
63556;BME280;49700;48.072;7.800;2023-04-24T10:17:10;99033.84;;;15.69;nan
63556;BME280;49700;48.072;7.800;2023-04-24T10:20:17;99032.84;;;16.08;nan
63556;BME280;49700;48.072;7.800;2023-04-24T10:23:12;99043.94;;;16.21;nan
63556;BME280;49700;48.072;7.800;2023-04-24T10:26:06;99042.72;;;16.15;nan
63556;BME280;49700;48.072;7.800;2023-04-24T10:32:27;99051.72;;;15.95;nan
63556;BME280;49700;48.072;7.800;2023-04-24T10:35:22;99052.78;;;15.75;nan
63556;BME280;49700;48.072;7.800;2023-04-24T10:38:18;99053.75;;;15.64;nan
63556;BME280;49700;48.072;7.800;2023-04-24T10:41:11;99050.28;;;15.54;nan
63556;BME280;49700;48.072;7.800;2023-04-24T10:44:56;99066.69;;;15.57;nan
63556;BME280;49700;48.072;7.800;2023-04-24T10:48:00;99057.69;;;15.50;nan
63556;BME280;49700;48.072;7.800;2023-04-24T10:51:12;99059.91;;;15.45;nan
63556;BME280;49700;48.072;7.800;2023-04-24T10:54:23;99063.81;;;15.41;nan
63556;BME280;49700;48.072;7.800;2023-04-24T10:57:25;99069.38;;;15.38;nan
63556;BME280;49700;48.072;7.800;2023-04-24T11:00:55;99071.78;;;15.31;nan
63556;BME280;49700;48.072;7.800;2023-04-24T11:03:58;99067.72;;;15.27;nan
63556;BME280;49700;48.072;7.800;2023-04-24T11:07:30;99076.25;;;15.21;nan
63556;BME280;49700;48.072;7.800;2023-04-24T11:10:38;99062.03;;;15.22;nan
63556;BME280;49700;48.072;7.800;2023-04-24T11:13:07;99071.22;;;15.27;nan
63556;BME280;49700;48.072;7.800;2023-04-24T11:15:33;99069.97;;;15.32;nan
63556;BME280;49700;48.072;7.800;2023-04-24T11:17:58;99059.63;;;15.38;nan
63556;BME280;49700;48.072;7.800;2023-04-24T11:20:26;99053.75;;;15.54;nan
63556;BME280;49700;48.072;7.800;2023-04-24T11:23:36;99059.56;;;15.67;nan
63556;BME280;49700;48.072;7.800;2023-04-24T11:26:25;99073.97;;;15.75;nan
63556;BME280;49700;48.072;7.800;2023-04-24T11:29:06;99068.78;;;15.73;nan
63556;BME280;49700;48.072;7.800;2023-04-24T11:31:39;99065.44;;;15.71;nan
63556;BME280;49700;48.072;7.800;2023-04-24T11:34:11;99067.81;;;15.64;nan
63556;BME280;49700;48.072;7.800;2023-04-24T11:36:40;99069.34;;;15.57;nan
63556;BME280;49700;48.072;7.800;2023-04-24T11:39:08;99083.88;;;15.53;nan
63556;BME280;49700;48.072;7.800;2023-04-24T11:42:02;99078.00;;;15.49;nan
63556;BME280;49700;48.072;7.800;2023-04-24T11:44:34;99075.09;;;15.43;nan
63556;BME280;49700;48.072;7.800;2023-04-24T11:50:18;99067.03;;;15.35;nan
63556;BME280;49700;48.072;7.800;2023-04-24T11:52:49;99068.41;;;15.39;nan
63556;BME280;49700;48.072;7.800;2023-04-24T11:57:50;99052.94;;;15.44;nan
63556;BME280;49700;48.072;7.800;2023-04-24T12:00:18;99053.06;;;15.52;nan
63556;BME280;49700;48.072;7.800;2023-04-24T12:02:44;99055.00;;;15.60;nan
63556;BME280;49700;48.072;7.800;2023-04-24T12:05:29;99054.03;;;15.70;nan
63556;BME280;49700;48.072;7.800;2023-04-24T12:07:56;99054.28;;;15.77;nan
63556;BME280;49700;48.072;7.800;2023-04-24T12:10:26;99055.97;;;15.78;nan
63556;BME280;49700;48.072;7.800;2023-04-24T12:13:02;99052.47;;;15.78;nan
63556;BME280;49700;48.072;7.800;2023-04-24T12:15:27;99056.66;;;15.70;nan
63556;BME280;49700;48.072;7.800;2023-04-24T12:17:57;99062.94;;;15.60;nan
63556;BME280;49700;48.072;7.800;2023-04-24T12:20:29;99064.75;;;15.49;nan
63556;BME280;49700;48.072;7.800;2023-04-24T12:22:56;99060.75;;;15.45;nan
63556;BME280;49700;48.072;7.800;2023-04-24T12:25:30;99061.28;;;15.49;nan
63556;BME280;49700;48.072;7.800;2023-04-24T12:30:33;99043.31;;;15.72;nan
63556;BME280;49700;48.072;7.800;2023-04-24T12:32:59;99055.06;;;15.97;nan
63556;BME280;49700;48.072;7.800;2023-04-24T12:35:28;99052.09;;;16.28;nan
63556;BME280;49700;48.072;7.800;2023-04-24T12:37:54;99044.91;;;16.48;nan
63556;BME280;49700;48.072;7.800;2023-04-24T12:40:24;99054.69;;;16.65;nan
63556;BME280;49700;48.072;7.800;2023-04-24T12:42:51;99046.97;;;16.72;nan
63556;BME280;49700;48.072;7.800;2023-04-24T12:45:20;99038.44;;;16.78;nan
63556;BME280;49700;48.072;7.800;2023-04-24T12:47:48;99033.66;;;16.81;nan
63556;BME280;49700;48.072;7.800;2023-04-24T12:50:15;99030.19;;;16.81;nan
63556;BME280;49700;48.072;7.800;2023-04-24T12:52:41;99033.91;;;16.88;nan
63556;BME280;49700;48.072;7.800;2023-04-24T12:55:10;99027.22;;;16.84;nan
63556;BME280;49700;48.072;7.800;2023-04-24T12:57:38;99026.69;;;16.80;nan
63556;BME280;49700;48.072;7.800;2023-04-24T13:00:08;99019.31;;;16.74;nan
63556;BME280;49700;48.072;7.800;2023-04-24T13:02:34;99028.25;;;16.73;nan
63556;BME280;49700;48.072;7.800;2023-04-24T13:05:00;99018.63;;;16.72;nan
63556;BME280;49700;48.072;7.800;2023-04-24T13:07:27;99009.69;;;16.73;nan
63556;BME280;49700;48.072;7.800;2023-04-24T13:10:00;99009.38;;;16.76;nan
63556;BME280;49700;48.072;7.800;2023-04-24T13:12:40;99007.44;;;16.78;nan
63556;BME280;49700;48.072;7.800;2023-04-24T13:15:13;99024.47;;;16.76;nan
63556;BME280;49700;48.072;7.800;2023-04-24T13:17:38;99007.34;;;16.70;nan
63556;BME280;49700;48.072;7.800;2023-04-24T13:20:07;99012.13;;;16.67;nan
63556;BME280;49700;48.072;7.800;2023-04-24T13:22:32;99012.50;;;16.72;nan
63556;BME280;49700;48.072;7.800;2023-04-24T13:24:58;99007.13;;;16.81;nan
63556;BME280;49700;48.072;7.800;2023-04-24T13:27:23;99002.59;;;16.92;nan
63556;BME280;49700;48.072;7.800;2023-04-24T13:29:49;98997.22;;;17.01;nan
63556;BME280;49700;48.072;7.800;2023-04-24T13:32:14;98995.22;;;17.03;nan
63556;BME280;49700;48.072;7.800;2023-04-24T13:34:40;98998.41;;;17.07;nan
63556;BME280;49700;48.072;7.800;2023-04-24T13:37:05;98996.72;;;17.06;nan
63556;BME280;49700;48.072;7.800;2023-04-24T13:39:32;98995.59;;;17.09;nan
63556;BME280;49700;48.072;7.800;2023-04-24T13:41:58;98995.75;;;17.07;nan
63556;BME280;49700;48.072;7.800;2023-04-24T13:44:24;98995.22;;;17.03;nan
63556;BME280;49700;48.072;7.800;2023-04-24T13:46:53;98979.91;;;16.97;nan
63556;BME280;49700;48.072;7.800;2023-04-24T13:49:42;98986.16;;;16.88;nan
63556;BME280;49700;48.072;7.800;2023-04-24T13:52:08;98978.78;;;16.82;nan
63556;BME280;49700;48.072;7.800;2023-04-24T13:54:35;98969.47;;;16.78;nan
63556;BME280;49700;48.072;7.800;2023-04-24T13:57:21;98979.53;;;16.74;nan
63556;BME280;49700;48.072;7.800;2023-04-24T14:00:20;98985.13;;;16.71;nan
63556;BME280;49700;48.072;7.800;2023-04-24T14:03:03;98983.16;;;16.73;nan
63556;BME280;49700;48.072;7.800;2023-04-24T14:05:29;98974.50;;;16.71;nan
63556;BME280;49700;48.072;7.800;2023-04-24T14:07:54;98982.63;;;16.70;nan
63556;BME280;49700;48.072;7.800;2023-04-24T14:10:20;98981.75;;;16.61;nan
63556;BME280;49700;48.072;7.800;2023-04-24T14:12:45;98982.50;;;16.53;nan
63556;BME280;49700;48.072;7.800;2023-04-24T14:15:11;98979.16;;;16.51;nan
63556;BME280;49700;48.072;7.800;2023-04-24T14:17:40;98966.03;;;16.50;nan
63556;BME280;49700;48.072;7.800;2023-04-24T14:20:09;98979.75;;;16.45;nan
63556;BME280;49700;48.072;7.800;2023-04-24T14:23:31;98976.84;;;16.38;nan
63556;BME280;49700;48.072;7.800;2023-04-24T14:26:27;98983.75;;;16.31;nan
63556;BME280;49700;48.072;7.800;2023-04-24T14:32:18;98976.63;;;16.32;nan
63556;BME280;49700;48.072;7.800;2023-04-24T14:35:07;98994.66;;;16.46;nan
63556;BME280;49700;48.072;7.800;2023-04-24T14:37:46;98991.66;;;16.59;nan
63556;BME280;49700;48.072;7.800;2023-04-24T14:40:14;98979.75;;;16.63;nan
63556;BME280;49700;48.072;7.800;2023-04-24T14:43:11;98985.66;;;16.57;nan
63556;BME280;49700;48.072;7.800;2023-04-24T14:46:09;98983.31;;;16.54;nan
63556;BME280;49700;48.072;7.800;2023-04-24T14:48:45;98989.00;;;16.59;nan
63556;BME280;49700;48.072;7.800;2023-04-24T14:51:33;98989.06;;;16.67;nan
63556;BME280;49700;48.072;7.800;2023-04-24T14:53:58;98990.75;;;16.68;nan
63556;BME280;49700;48.072;7.800;2023-04-24T14:56:24;98993.69;;;16.65;nan
63556;BME280;49700;48.072;7.800;2023-04-24T14:58:52;98984.38;;;16.61;nan
63556;BME280;49700;48.072;7.800;2023-04-24T15:01:23;98985.22;;;16.62;nan
63556;BME280;49700;48.072;7.800;2023-04-24T15:04:43;98990.22;;;16.65;nan
63556;BME280;49700;48.072;7.800;2023-04-24T15:07:36;98992.41;;;16.69;nan
63556;BME280;49700;48.072;7.800;2023-04-24T15:10:23;98990.69;;;16.78;nan
63556;BME280;49700;48.072;7.800;2023-04-24T15:13:12;98984.97;;;16.73;nan
63556;BME280;49700;48.072;7.800;2023-04-24T15:15:55;98986.13;;;16.70;nan
63556;BME280;49700;48.072;7.800;2023-04-24T15:18:24;98987.13;;;16.69;nan
63556;BME280;49700;48.072;7.800;2023-04-24T15:21:03;98980.75;;;16.62;nan
63556;BME280;49700;48.072;7.800;2023-04-24T15:23:46;98982.72;;;16.60;nan
63556;BME280;49700;48.072;7.800;2023-04-24T15:26:50;98987.03;;;16.61;nan
63556;BME280;49700;48.072;7.800;2023-04-24T15:29:49;98974.38;;;16.55;nan